Hagshult, Sweden

3:17 AM CET on December 25, 2014 (GMT +0100)
Värnamo | Change Station
CLOSE
Current Station
Personal Weather Station
Location: Värnamo, JöNKöPINGS LäN
Elevation: 515 ft
Nearby Weather Stations

Elev 515 ft 57.20 °N, 14.04 °E | Updated 58 seconds ago

Overcast
Overcast
28.1 °F
Feels Like 24 °F
N
4.0
Wind Variable Wind from NE
Gusts 11.0 mph

Today
High -- | Low -- °F
--% Chance of Precip.
Yesterday
High -- | Low -- °F
Precip. -- in
8:43 AM 3:23 PM
Waxing Crescent, 12% visible
Pressure 29.74 in
Visibility 6.2 miles
Clouds Few 600 ft
Overcast 1100 ft
Windchill 24 °F
Dew Point 25 °F
Humidity 89%
Rainfall 0.00 in
Snow Depth Not available.
UV 0 out of 12
Pollen Not available.
Air Quality Not available.
Flu Activity Not available.
METAR ESGJ 250150Z AUTO 04007KT 360V080 9999 FEW006/// OVC011/// M04/M05 Q1007

More Conditions Fewer Conditions

Pressure 29.74 in
Visibility 6.2 miles
Clouds Few 600 ft
Overcast 1100 ft
Windchill 24 °F
Dew Point 25 °F
Humidity 89%
Rainfall 0.00 in
Snow Depth Not available.
UV 0 out of 12
Pollen Not available.
Air Quality Not available.
Flu Activity Not available.
METAR ESGJ 250150Z AUTO 04007KT 360V080 9999 FEW006/// OVC011/// M04/M05 Q1007

More Conditions Fewer Conditions

10-Day Weather Forecast

Almanac

Astronomy

Dec. 25, 2014 Rise Set
Actual Time
Civil Twilight
Nautical Twilight
Astronomical Twilight
Moon
Length of Visible Light
Length of Day
Tomorrow will be .
, % of the Moon is Illuminated

Today's Extremes

Country Highs Country Lows

Community

WunderPhotos

Upload Photos

1,780,210 photos uploaded!

WunderBlogs® & News

Nearby

Air Quality

  Air Quality AQ Index Pollutant
Not available.

Snow Depth

Station Depth Elevation

Earthquake Activity

City Distance Mag. Time & Date
Minimum magnitude displayed is 2.5.

Coastal Water Temperatures

Place Temperature

Nearby Weather Stations